Airfield :
LOGIN :

Register | Disclaimer

   EN    FR    IT 

 










Legend :    VFR   Marginal VFR   IFR   Intensive IFR   Very Intensive IFR
Visi :
Ceiling :
>= 8 km
>= 3000ft
5 to 8 km
1000 to 3000 ft
1500m to 5 km
500 to 1000 ft
800 to 1500m
200 to 500 ft
< 800m
< 200 ft
Symbols :   Thunderstorms  Fog  Heavy snow  Heavy precipitations  Wind > 20 kt
SIGMETs :     Misc.  Thunderstorms  Icing  Turbulence  Mountain Waves  Volcanic Ashes







- Airport Elevation : 1470 ft
- IATA code : KLU


LOWK - Klagenfurt

CURRENT METAR :
  • 161620Z 07003KT 040V120 9999 FEW060 26/08 Q1013 NOSIG

EXPIRED METARs :
  • 161550Z VRB03KT 9999 FEW060 25/09 Q1013 NOSIG
  • 161520Z 09004KT 360V150 9999 FEW060 SCT110 26/09 Q1013 NOSIG
  • 161450Z 08004KT 040V140 9999 FEW060 SCT110 26/08 Q1013 NOSIG
  • 161420Z 06003KT 030V120 9999 FEW060 SCT110 26/08 Q1013 NOSIG
  • 161350Z 06004KT 360V140 9999 FEW060 SCT100 26/08 Q1014 NOSIG

TAF TAF LOWK
Valid from the 16 at 12:00 until the 17 at 12:00 UTC


161115Z 1612/1712 VRB02KT 9999 FEW060 TX27/1712Z TN13/1704Z
TEMPO 1612/1618 10007KT
No reported NOTAMs for that airfield.



MET'MAP, your aeronautical weather chart ! - Copyright ORBIFLY December 2007 - Disclaimer

ORBIFLY MET'MAP TEAM :

Programming & Development : Alexandra Zaïnal
Concept & Development : Baudouin d'Aumeries
Co-Development & Prog : Marc-Olivier Méhu
Technical & hardware support : Manuel Goepfert

Contact : metmap@orbifly.com




SOURCES & CREDITS :

   NOAA